Niederwald, Texas
Current Conditions -  °F | °C
As of 11:53 AM on Friday 28 Nov 2014 (Local Time) from KAUS Reporting Station
Few Clouds Few Clouds  
Wind Chill: 68°   Ceiling: Unl
Heat Index: 68°   Visibility: 10mi
Dew Point: 53°   Wind: 15mph
Humidity: 59%   Direction: 220°SW
Pressure: 30.23"   Gusts: 24mph
Location:  29.9978°N, 97.835°W
Report Text: KAUS 281753Z 22013G21KT 10SM FEW020 20/12 A3023 RMK AO2 SLP238 T02000117 10200 20039 58028
Loading
Personal Weather Stations






























Interactive Weather Map New forecast layout! Learn more

10-Day Weather Forecast

Advertisements
Track Severe Weather on mobile